Time;durP1;ratioP1;P1;durP2;ratioP2;P2;SDS_P1;SDS_P2;PMS_P1;PMS_P2;Temp;Humidity;BMP_temperature;BMP_pressure;BME280_temperature;BME280_humidity;BME280_pressure;Samples;Min_cycle;Max_cycle;Signal;HPM_P1;HPM_P2
2023/04/23 00:01:00;;;;;;;96.15;59.17;;;10.20;99.90;;;;;;6241943;23;20055;-79
2023/04/23 00:03:27;;;;;;;91.38;58.88;;;10.20;99.90;;;;;;6241602;22;20080;-80
2023/04/23 00:05:56;;;;;;;100.57;58.33;;;10.10;99.90;;;;;;6241874;22;20000;-79
2023/04/23 00:08:22;;;;;;;92.57;56.80;;;10.10;99.90;;;;;;6241749;22;20334;-79
2023/04/23 00:10:49;;;;;;;98.15;60.60;;;10.10;99.90;;;;;;6241620;23;20007;-79
2023/04/23 00:13:15;;;;;;;95.70;58.58;;;10.10;99.90;;;;;;6240161;22;20004;-79
2023/04/23 00:15:40;;;;;;;98.35;60.90;;;10.10;99.90;;;;;;6241133;22;19996;-79
2023/04/23 00:18:06;;;;;;;97.10;59.20;;;10.10;99.90;;;;;;6239814;23;20027;-79
2023/04/23 00:20:34;;;;;;;88.57;55.10;;;10.10;99.90;;;;;;6240863;22;20008;-79
2023/04/23 00:23:00;;;;;;;96.07;59.38;;;10.10;99.90;;;;;;6240717;22;20011;-79
2023/04/23 00:25:25;;;;;;;93.28;58.08;;;10.00;99.90;;;;;;6239966;23;20422;-79
2023/04/23 00:27:51;;;;;;;93.50;58.80;;;10.00;99.90;;;;;;6241916;23;20014;-79
2023/04/23 00:30:17;;;;;;;91.43;56.20;;;10.00;99.90;;;;;;6241518;23;20087;-79
2023/04/23 00:32:43;;;;;;;92.97;56.95;;;10.00;99.90;;;;;;6241153;22;20012;-79
2023/04/23 00:35:09;;;;;;;88.65;57.13;;;9.90;99.90;;;;;;6241668;22;20005;-79
2023/04/23 00:37:34;;;;;;;91.00;57.00;;;9.90;99.90;;;;;;6241625;23;20487;-79
2023/04/23 00:40:01;;;;;;;93.15;56.22;;;9.90;99.90;;;;;;6241863;23;20006;-79
2023/04/23 00:42:27;;;;;;;94.88;57.22;;;9.80;99.90;;;;;;6241777;22;20027;-79
2023/04/23 00:44:53;;;;;;;88.15;56.60;;;9.80;99.90;;;;;;6241647;22;20005;-79
2023/04/23 00:47:19;;;;;;;90.78;56.88;;;9.70;99.90;;;;;;6238564;23;20426;-79
2023/04/23 00:49:45;;;;;;;97.72;58.25;;;9.70;99.90;;;;;;6241164;23;20019;-79
2023/04/23 00:52:11;;;;;;;103.05;57.25;;;9.70;99.90;;;;;;6241357;22;20008;-79
2023/04/23 00:54:36;;;;;;;93.75;56.63;;;9.70;99.90;;;;;;6241499;23;20070;-79
2023/04/23 00:57:02;;;;;;;93.03;55.40;;;9.60;99.90;;;;;;6242908;23;20075;-79
2023/04/23 00:59:29;;;;;;;93.32;55.58;;;9.60;99.90;;;;;;6243324;23;20016;-80
2023/04/23 01:01:55;;;;;;;97.95;55.78;;;9.50;99.90;;;;;;6242921;22;20075;-79
2023/04/23 01:04:22;;;;;;;101.10;59.08;;;9.50;99.90;;;;;;6243073;22;20027;-79
2023/04/23 01:06:48;;;;;;;91.22;53.85;;;9.50;99.90;;;;;;6243404;22;20414;-80
2023/04/23 01:09:16;;;;;;;93.30;53.07;;;9.40;99.90;;;;;;6243574;23;20000;-80
2023/04/23 01:11:42;;;;;;;94.07;55.63;;;9.40;99.90;;;;;;6245388;22;20000;-79
2023/04/23 01:14:09;;;;;;;89.95;53.00;;;9.40;99.90;;;;;;6247736;22;20000;-79
2023/04/23 01:16:37;;;;;;;94.13;54.85;;;9.40;99.90;;;;;;6245407;22;20528;-79
2023/04/23 01:19:07;;;;;;;92.38;52.67;;;9.40;99.90;;;;;;6244429;22;20000;-80
2023/04/23 01:21:34;;;;;;;95.57;54.50;;;9.40;99.90;;;;;;6244701;22;20004;-80
2023/04/23 01:24:02;;;;;;;101.80;54.45;;;9.40;99.90;;;;;;6254005;22;20075;-79
2023/04/23 01:26:28;;;;;;;102.25;53.78;;;9.50;99.90;;;;;;6250028;23;20079;-79
2023/04/23 01:28:53;;;;;;;97.53;56.45;;;9.50;99.90;;;;;;6243879;23;20031;-79
2023/04/23 01:31:19;;;;;;;100.07;57.30;;;9.60;99.90;;;;;;6242537;23;20011;-79
2023/04/23 01:33:45;;;;;;;107.95;58.38;;;9.70;99.90;;;;;;6243455;22;20071;-80
2023/04/23 01:36:11;;;;;;;103.47;56.80;;;9.80;99.90;;;;;;6243075;22;20000;-80
2023/04/23 01:38:38;;;;;;;101.90;56.97;;;9.80;99.90;;;;;;6243444;23;20008;-79
2023/04/23 01:41:04;;;;;;;100.32;54.25;;;9.90;99.90;;;;;;6243680;22;20000;-80
2023/04/23 01:43:31;;;;;;;103.88;56.65;;;9.90;99.90;;;;;;6241715;23;20367;-79
2023/04/23 01:45:57;;;;;;;107.55;59.63;;;9.90;99.90;;;;;;6242445;23;20004;-78
2023/04/23 01:48:23;;;;;;;106.15;57.55;;;9.90;99.90;;;;;;6240215;23;20104;-78
2023/04/23 01:50:50;;;;;;;103.70;57.25;;;9.90;99.90;;;;;;6241612;23;20008;-78
2023/04/23 01:53:15;;;;;;;106.50;57.40;;;9.80;99.90;;;;;;6242987;22;20054;-78
2023/04/23 01:55:44;;;;;;;104.10;58.67;;;9.80;99.90;;;;;;6242629;23;20004;-78
2023/04/23 01:58:10;;;;;;;106.00;56.87;;;9.80;99.90;;;;;;6241190;22;20401;-78
2023/04/23 02:00:35;;;;;;;105.43;56.80;;;9.70;99.90;;;;;;6241775;23;20000;-78
2023/04/23 02:03:01;;;;;;;104.03;54.63;;;9.70;99.90;;;;;;6241993;22;20161;-78
2023/04/23 02:05:28;;;;;;;96.05;53.47;;;9.70;99.90;;;;;;6242869;23;20007;-79
2023/04/23 02:07:54;;;;;;;95.80;53.35;;;9.60;99.90;;;;;;6242641;22;20019;-79
2023/04/23 02:10:20;;;;;;;94.65;51.55;;;9.60;99.90;;;;;;6242833;22;20331;-78
2023/04/23 02:12:46;;;;;;;99.35;55.08;;;9.60;99.90;;;;;;6243205;23;20026;-78
2023/04/23 02:15:13;;;;;;;96.80;53.60;;;9.70;99.90;;;;;;6242630;22;20000;-78
2023/04/23 02:17:39;;;;;;;103.27;55.03;;;9.70;99.90;;;;;;6243081;22;20095;-78
2023/04/23 02:20:09;;;;;;;102.88;56.42;;;9.70;99.90;;;;;;6242909;23;20032;-78
2023/04/23 02:22:38;;;;;;;116.93;59.87;;;9.70;99.90;;;;;;6243117;22;20009;-78
2023/04/23 02:25:04;;;;;;;97.88;55.72;;;9.70;99.90;;;;;;6242772;22;20011;-78
2023/04/23 02:27:32;;;;;;;101.82;58.03;;;9.70;99.90;;;;;;6242427;22;20008;-79
2023/04/23 02:29:57;;;;;;;102.25;56.25;;;9.70;99.90;;;;;;6242622;22;19996;-78
2023/04/23 02:32:23;;;;;;;101.55;57.80;;;9.80;99.90;;;;;;6242580;23;20026;-78
2023/04/23 02:34:48;;;;;;;96.88;57.03;;;9.80;99.90;;;;;;6242929;23;19996;-78
2023/04/23 02:37:14;;;;;;;103.10;58.47;;;9.80;99.90;;;;;;6240918;23;20004;-78
2023/04/23 02:39:39;;;;;;;100.13;56.72;;;9.80;99.90;;;;;;6242702;23;20011;-78
2023/04/23 02:42:05;;;;;;;98.15;55.92;;;9.80;99.90;;;;;;6242331;23;20019;-78
2023/04/23 02:44:31;;;;;;;97.63;56.00;;;9.80;99.90;;;;;;6242690;23;20453;-78
2023/04/23 02:46:56;;;;;;;102.95;56.22;;;9.80;99.90;;;;;;6242554;23;20054;-79
2023/04/23 02:49:22;;;;;;;108.60;58.78;;;9.80;99.90;;;;;;6242449;23;20008;-79
2023/04/23 02:51:47;;;;;;;99.03;55.38;;;9.80;99.90;;;;;;6242644;23;20075;-78
2023/04/23 02:54:13;;;;;;;94.93;55.42;;;9.80;99.90;;;;;;6242351;23;20023;-78
2023/04/23 02:56:39;;;;;;;99.68;56.20;;;9.90;99.90;;;;;;6242375;23;20381;-78
2023/04/23 02:59:05;;;;;;;103.15;57.15;;;9.90;99.90;;;;;;6242641;22;20011;-78
2023/04/23 03:01:31;;;;;;;87.15;54.88;;;9.90;99.90;;;;;;6241248;23;20055;-79
2023/04/23 03:03:58;;;;;;;98.30;54.97;;;9.90;99.90;;;;;;6240629;23;20004;-79
2023/04/23 03:06:23;;;;;;;97.95;54.97;;;9.80;99.90;;;;;;6242087;22;20429;-79
2023/04/23 03:08:49;;;;;;;95.63;54.67;;;9.80;99.90;;;;;;6242361;23;20008;-79
2023/04/23 03:11:15;;;;;;;100.45;54.55;;;9.70;99.90;;;;;;6241482;23;19996;-78
2023/04/23 03:13:40;;;;;;;95.00;51.83;;;9.70;99.90;;;;;;6242399;23;20000;-78
2023/04/23 03:16:06;;;;;;;101.20;54.78;;;9.60;99.90;;;;;;6242420;23;20035;-78
2023/04/23 03:18:32;;;;;;;93.22;54.45;;;9.60;99.90;;;;;;6242015;22;20012;-78
2023/04/23 03:20:57;;;;;;;92.78;55.78;;;9.60;99.90;;;;;;6242307;22;20072;-79
2023/04/23 03:23:23;;;;;;;97.75;51.25;;;9.50;99.90;;;;;;6242145;23;20364;-79
2023/04/23 03:25:49;;;;;;;104.65;54.97;;;9.50;99.90;;;;;;6242854;22;20434;-78
2023/04/23 03:28:14;;;;;;;89.38;52.10;;;9.40;99.90;;;;;;6243421;23;20070;-79
2023/04/23 03:30:40;;;;;;;91.35;52.25;;;9.40;99.90;;;;;;6248554;23;20417;-78
2023/04/23 03:33:06;;;;;;;78.20;45.45;;;9.40;99.90;;;;;;6244476;23;20008;-78
2023/04/23 03:35:32;;;;;;;91.10;53.47;;;9.40;99.90;;;;;;6242271;23;20365;-79
2023/04/23 03:37:57;;;;;;;87.63;51.15;;;9.40;99.90;;;;;;6247432;23;20004;-78
2023/04/23 03:40:23;;;;;;;90.88;54.72;;;9.40;99.90;;;;;;6246253;23;20015;-76
2023/04/23 03:42:49;;;;;;;92.85;51.35;;;9.40;99.90;;;;;;6246309;23;20079;-78
2023/04/23 03:45:15;;;;;;;96.38;54.67;;;9.40;99.90;;;;;;6244166;23;20000;-78
2023/04/23 03:47:41;;;;;;;87.72;49.58;;;9.40;99.90;;;;;;6242361;22;20004;-78
2023/04/23 03:50:08;;;;;;;97.97;54.15;;;9.40;99.90;;;;;;6242398;23;20073;-79
2023/04/23 03:52:34;;;;;;;95.47;53.50;;;9.40;99.90;;;;;;6241892;23;20003;-78
2023/04/23 03:54:59;;;;;;;99.47;53.20;;;9.40;99.90;;;;;;6241840;23;20004;-78
2023/04/23 03:57:25;;;;;;;90.10;52.85;;;9.40;99.90;;;;;;6241955;23;20011;-78
2023/04/23 03:59:51;;;;;;;85.32;49.85;;;9.40;99.90;;;;;;6240331;23;20008;-78
2023/04/23 04:02:16;;;;;;;97.20;52.60;;;9.40;99.90;;;;;;6241628;23;20418;-78
2023/04/23 04:04:44;;;;;;;87.88;52.45;;;9.40;99.90;;;;;;6241432;23;20321;-78
2023/04/23 04:07:11;;;;;;;84.85;49.15;;;9.40;99.90;;;;;;6240254;22;20671;-78
2023/04/23 04:09:37;;;;;;;94.70;52.33;;;9.40;99.90;;;;;;6238457;22;19996;-78
2023/04/23 04:12:04;;;;;;;84.15;46.95;;;9.40;99.90;;;;;;6239292;22;20513;-78
2023/04/23 04:14:30;;;;;;;79.15;46.17;;;9.30;99.90;;;;;;6240402;22;20054;-78
2023/04/23 04:16:56;;;;;;;86.22;48.05;;;9.30;99.90;;;;;;6241718;22;20027;-78
2023/04/23 04:19:22;;;;;;;84.75;48.70;;;9.30;99.90;;;;;;6241906;22;20739;-78
2023/04/23 04:21:48;;;;;;;89.00;50.92;;;9.40;99.90;;;;;;6239160;23;20004;-79
2023/04/23 04:24:14;;;;;;;92.40;49.15;;;9.40;99.90;;;;;;6241256;22;20008;-78
2023/04/23 04:26:40;;;;;;;84.73;49.07;;;9.50;99.90;;;;;;6241898;22;20000;-78
2023/04/23 04:29:08;;;;;;;87.35;49.97;;;9.50;99.90;;;;;;6240279;23;20011;-78
2023/04/23 04:31:34;;;;;;;81.22;48.17;;;9.50;99.90;;;;;;6243314;22;20000;-78
2023/04/23 04:34:00;;;;;;;89.25;50.38;;;9.50;99.90;;;;;;6243681;22;20509;-79
2023/04/23 04:36:27;;;;;;;86.57;48.70;;;9.50;99.90;;;;;;6243863;22;20086;-78
2023/04/23 04:38:57;;;;;;;87.38;48.60;;;9.50;99.90;;;;;;6241576;23;20003;-79
2023/04/23 04:41:24;;;;;;;95.30;51.55;;;9.40;99.90;;;;;;6241820;23;20062;-78
2023/04/23 04:43:50;;;;;;;87.57;49.28;;;9.40;99.90;;;;;;6243364;22;20071;-78
2023/04/23 04:46:18;;;;;;;87.05;50.55;;;9.40;99.90;;;;;;6243767;22;20478;-79
2023/04/23 04:48:44;;;;;;;83.72;47.58;;;9.50;99.90;;;;;;6243675;22;20007;-78
2023/04/23 04:51:10;;;;;;;86.30;48.40;;;9.60;99.90;;;;;;6243781;23;20004;-78
2023/04/23 04:53:35;;;;;;;84.60;48.92;;;9.70;99.90;;;;;;6243083;23;20000;-79
2023/04/23 04:56:01;;;;;;;81.72;49.78;;;9.70;99.90;;;;;;6243788;23;20425;-79
2023/04/23 04:58:27;;;;;;;83.22;46.38;;;9.80;99.90;;;;;;6243466;23;20369;-79
2023/04/23 05:00:53;;;;;;;89.50;47.55;;;9.80;99.90;;;;;;6243597;23;20082;-78
2023/04/23 05:03:19;;;;;;;80.20;46.15;;;9.90;99.90;;;;;;6243463;22;20071;-78
2023/04/23 05:05:45;;;;;;;80.07;47.88;;;9.90;99.90;;;;;;6243642;22;20321;-78
2023/04/23 05:08:11;;;;;;;89.65;48.63;;;9.90;99.90;;;;;;6242836;22;20004;-78
2023/04/23 05:10:37;;;;;;;81.65;48.40;;;10.10;99.90;;;;;;6243658;23;20392;-78
2023/04/23 05:13:03;;;;;;;78.85;47.90;;;10.10;99.90;;;;;;6243713;22;20062;-78
2023/04/23 05:15:29;;;;;;;80.70;47.15;;;10.10;99.90;;;;;;6243673;23;19996;-78
2023/04/23 05:17:54;;;;;;;77.90;46.60;;;10.10;99.90;;;;;;6243280;23;20007;-79
2023/04/23 05:20:20;;;;;;;71.88;43.58;;;10.20;99.90;;;;;;6243281;23;20050;-78
2023/04/23 05:22:46;;;;;;;69.50;43.58;;;10.20;99.90;;;;;;6243016;22;19996;-78
2023/04/23 05:25:12;;;;;;;68.88;42.63;;;10.30;99.90;;;;;;6242951;23;20000;-78
2023/04/23 05:27:38;;;;;;;65.65;42.45;;;10.30;99.90;;;;;;6243422;23;20000;-79
2023/04/23 05:30:08;;;;;;;57.35;38.10;;;10.30;99.90;;;;;;6243228;22;20075;-78
2023/04/23 05:32:34;;;;;;;58.15;39.50;;;10.40;99.90;;;;;;6242990;22;20081;-78
2023/04/23 05:35:01;;;;;;;57.03;38.15;;;10.40;99.90;;;;;;6243409;22;20062;-78
2023/04/23 05:37:27;;;;;;;52.90;37.75;;;10.40;99.90;;;;;;6242725;22;20071;-78
2023/04/23 05:39:52;;;;;;;55.17;36.15;;;10.40;99.90;;;;;;6243088;23;20031;-78
2023/04/23 05:42:18;;;;;;;49.85;35.15;;;10.40;99.90;;;;;;6243098;23;20066;-79
2023/04/23 05:44:44;;;;;;;47.63;35.22;;;10.50;99.90;;;;;;6244582;23;20521;-78
2023/04/23 05:47:10;;;;;;;41.97;33.00;;;10.60;99.90;;;;;;6246751;22;20051;-78
2023/04/23 05:49:36;;;;;;;44.63;34.47;;;10.60;99.90;;;;;;6246030;23;20023;-79
2023/04/23 05:52:02;;;;;;;40.47;32.25;;;10.70;99.90;;;;;;6245164;23;20032;-78
2023/04/23 05:54:28;;;;;;;43.08;33.58;;;10.80;99.90;;;;;;6244978;23;20000;-79
2023/04/23 05:56:54;;;;;;;48.95;36.28;;;10.80;99.90;;;;;;6244829;22;20011;-78
2023/04/23 05:59:19;;;;;;;38.55;31.85;;;10.90;99.90;;;;;;6249565;22;20071;-78
2023/04/23 06:01:46;;;;;;;42.30;33.53;;;10.90;99.90;;;;;;6245321;23;20382;-78
2023/04/23 06:04:12;;;;;;;40.60;32.00;;;10.90;99.90;;;;;;6241374;23;20036;-78
2023/04/23 06:06:38;;;;;;;40.78;31.85;;;10.90;99.90;;;;;;6242789;22;20000;-78
2023/04/23 06:09:03;;;;;;;41.72;33.25;;;10.90;99.90;;;;;;6243056;23;20000;-78
2023/04/23 06:11:31;;;;;;;41.30;31.73;;;10.90;99.90;;;;;;6243211;23;20373;-79
2023/04/23 06:13:56;;;;;;;39.90;31.95;;;10.80;99.90;;;;;;6242406;22;20050;-78
2023/04/23 06:16:22;;;;;;;37.30;31.67;;;10.80;99.90;;;;;;6242937;22;20012;-78
2023/04/23 06:18:48;;;;;;;39.65;31.80;;;10.90;99.90;;;;;;6243027;22;20004;-78
2023/04/23 06:21:14;;;;;;;39.90;32.28;;;10.90;99.90;;;;;;6242398;23;20015;-78
2023/04/23 06:23:39;;;;;;;37.67;30.92;;;10.90;99.90;;;;;;6242891;23;20004;-78
2023/04/23 06:26:05;;;;;;;40.88;32.15;;;11.00;99.90;;;;;;6242792;23;20050;-78
2023/04/23 06:28:30;;;;;;;38.95;31.88;;;11.00;99.90;;;;;;6242843;23;20011;-79
2023/04/23 06:30:56;;;;;;;33.58;29.00;;;11.10;99.90;;;;;;6242912;23;19996;-79
2023/04/23 06:33:22;;;;;;;36.17;30.60;;;11.10;99.90;;;;;;6241753;23;20402;-78
2023/04/23 06:35:47;;;;;;;33.42;27.60;;;11.20;99.90;;;;;;6240952;23;19996;-78
2023/04/23 06:38:13;;;;;;;33.33;27.63;;;11.30;99.90;;;;;;6242539;23;20130;-78
2023/04/23 06:40:38;;;;;;;34.40;29.40;;;11.30;99.90;;;;;;6242698;23;20000;-79
2023/04/23 06:43:04;;;;;;;34.50;29.92;;;11.40;99.90;;;;;;6242507;22;20004;-78
2023/04/23 06:45:32;;;;;;;33.25;27.98;;;11.40;99.90;;;;;;6242325;23;20525;-78
2023/04/23 06:47:57;;;;;;;31.52;27.90;;;11.50;99.90;;;;;;6240945;23;20381;-80
2023/04/23 06:50:23;;;;;;;32.42;28.98;;;11.60;99.90;;;;;;6242015;23;20000;-79
2023/04/23 06:52:48;;;;;;;28.45;25.55;;;11.70;99.90;;;;;;6242678;23;20004;-72
2023/04/23 06:55:14;;;;;;;29.83;26.63;;;11.70;99.90;;;;;;6241437;23;20000;-73
2023/04/23 06:57:39;;;;;;;31.00;25.75;;;11.80;99.90;;;;;;6242294;23;20333;-72
2023/04/23 07:00:09;;;;;;;29.42;25.90;;;11.80;99.90;;;;;;6242657;22;20430;-72
2023/04/23 07:02:35;;;;;;;28.13;24.75;;;11.90;99.90;;;;;;6242083;22;20000;-72
2023/04/23 07:05:01;;;;;;;26.92;24.13;;;11.90;99.90;;;;;;6241958;22;20418;-71
2023/04/23 07:07:27;;;;;;;28.88;25.77;;;12.00;99.90;;;;;;6242024;22;20000;-72
2023/04/23 07:09:52;;;;;;;24.73;22.10;;;12.10;99.90;;;;;;6242193;23;20421;-72
2023/04/23 07:12:18;;;;;;;26.90;24.10;;;12.20;99.90;;;;;;6242138;23;20022;-73
2023/04/23 07:14:44;;;;;;;28.85;24.85;;;12.30;99.90;;;;;;6242576;22;20116;-72
2023/04/23 07:17:10;;;;;;;24.05;21.65;;;12.30;99.90;;;;;;6241980;23;20007;-71
2023/04/23 07:19:36;;;;;;;24.05;21.35;;;12.40;99.90;;;;;;6242006;22;20010;-72
2023/04/23 07:22:01;;;;;;;25.85;23.20;;;12.50;99.90;;;;;;6242523;22;20091;-72
2023/04/23 07:24:27;;;;;;;26.05;23.25;;;12.50;99.90;;;;;;6240620;23;20433;-72
2023/04/23 07:26:53;;;;;;;25.30;22.60;;;12.60;99.90;;;;;;6242037;23;20000;-72
2023/04/23 07:29:18;;;;;;;24.98;22.45;;;12.70;99.90;;;;;;6242216;23;20007;-72
2023/04/23 07:31:45;;;;;;;25.42;22.75;;;12.80;99.90;;;;;;6242048;23;19996;-72
2023/04/23 07:34:11;;;;;;;22.92;20.63;;;12.90;99.90;;;;;;6241435;22;20578;-72
2023/04/23 07:36:36;;;;;;;22.48;20.17;;;13.00;99.90;;;;;;6242124;22;20079;-72
2023/04/23 07:39:03;;;;;;;20.30;18.13;;;13.10;99.90;;;;;;6242377;23;20004;-72
2023/04/23 07:41:28;;;;;;;20.25;18.23;;;13.10;99.90;;;;;;6242165;22;19997;-72
2023/04/23 07:43:54;;;;;;;20.00;17.85;;;13.20;99.90;;;;;;6242129;23;20058;-73
2023/04/23 07:46:20;;;;;;;17.65;15.68;;;13.30;99.90;;;;;;6241446;22;20484;-73
2023/04/23 07:48:46;;;;;;;19.42;17.33;;;13.40;99.90;;;;;;6242042;23;20000;-72
2023/04/23 07:51:11;;;;;;;18.50;16.63;;;13.50;99.90;;;;;;6241669;23;20004;-73
2023/04/23 07:53:37;;;;;;;16.95;15.45;;;13.60;99.90;;;;;;6242127;23;20004;-73
2023/04/23 07:56:02;;;;;;;17.83;15.57;;;13.70;99.90;;;;;;6242043;23;20079;-73
2023/04/23 07:58:28;;;;;;;17.52;15.88;;;13.70;99.90;;;;;;6242046;23;20000;-73
2023/04/23 08:00:53;;;;;;;16.83;15.15;;;13.90;99.90;;;;;;6241465;23;20004;-71
2023/04/23 08:03:19;;;;;;;16.42;13.93;;;13.90;99.90;;;;;;6251078;23;20000;-73
2023/04/23 08:05:45;;;;;;;16.80;15.10;;;14.00;99.90;;;;;;6247693;22;20079;-72
2023/04/23 08:08:11;;;;;;;18.00;13.63;;;14.10;99.90;;;;;;6241584;23;20004;-73
2023/04/23 08:10:37;;;;;;;17.65;13.75;;;14.10;99.90;;;;;;6242006;22;20004;-72
2023/04/23 08:13:02;;;;;;;15.50;14.00;;;14.20;99.90;;;;;;6242056;23;20000;-72
2023/04/23 08:15:28;;;;;;;15.32;12.80;;;14.30;99.90;;;;;;6241637;23;20414;-72
2023/04/23 08:17:54;;;;;;;15.05;13.65;;;14.40;99.90;;;;;;6241958;23;20414;-72
2023/04/23 08:20:19;;;;;;;13.57;12.18;;;14.40;99.90;;;;;;6241863;22;20431;-73
2023/04/23 08:22:45;;;;;;;14.07;12.55;;;14.50;99.90;;;;;;6241796;23;20004;-73
2023/04/23 08:25:12;;;;;;;15.18;12.05;;;14.60;99.90;;;;;;6239743;23;20008;-73
2023/04/23 08:27:37;;;;;;;15.38;11.40;;;14.60;99.90;;;;;;6241717;22;20308;-72
2023/04/23 08:30:05;;;;;;;12.10;10.80;;;14.70;99.90;;;;;;6241279;22;20027;-73
2023/04/23 08:32:31;;;;;;;14.13;11.73;;;14.80;99.90;;;;;;6241505;22;20041;-72
2023/04/23 08:34:57;;;;;;;17.15;12.30;;;14.80;99.90;;;;;;6241607;23;20078;-72
2023/04/23 08:37:23;;;;;;;13.85;11.27;;;14.90;99.90;;;;;;6241548;22;20028;-73
2023/04/23 08:39:48;;;;;;;14.20;11.07;;;15.00;99.90;;;;;;6241539;22;20066;-72
2023/04/23 08:42:36;;;;;;;13.27;10.88;;;15.00;99.90;;;;;;6241272;23;20006;-72
2023/04/23 08:45:03;;;;;;;11.32;10.27;;;15.10;99.90;;;;;;6241518;22;20008;-73
2023/04/23 08:47:29;;;;;;;12.10;10.52;;;15.20;99.90;;;;;;6241517;22;20128;-71
2023/04/23 08:49:58;;;;;;;15.93;11.15;;;15.20;99.90;;;;;;6241665;22;20314;-72
2023/04/23 08:52:26;;;;;;;12.30;10.25;;;15.30;99.90;;;;;;6241642;22;20087;-72
2023/04/23 08:54:53;;;;;;;12.13;10.60;;;15.30;99.90;;;;;;6241487;22;20065;-72
2023/04/23 08:57:19;;;;;;;11.27;9.57;;;15.50;99.90;;;;;;6241306;22;20023;-72
2023/04/23 08:59:46;;;;;;;9.68;8.15;;;15.50;99.90;;;;;;6239570;23;20139;-72
2023/04/23 09:02:14;;;;;;;11.38;8.95;;;15.60;99.90;;;;;;6241251;23;20054;-71
2023/04/23 09:04:40;;;;;;;12.27;8.25;;;15.70;99.90;;;;;;6241457;22;20000;-72
2023/04/23 09:07:10;;;;;;;11.15;7.68;;;15.80;99.90;;;;;;6241208;22;20039;-71
2023/04/23 09:09:36;;;;;;;12.25;7.90;;;15.90;99.90;;;;;;6241195;22;20003;-72
2023/04/23 09:12:05;;;;;;;14.90;7.95;;;16.00;99.90;;;;;;6239615;23;20380;-71
2023/04/23 09:14:31;;;;;;;10.50;7.80;;;16.00;99.90;;;;;;6240935;22;20043;-71
2023/04/23 09:16:57;;;;;;;8.88;7.47;;;16.10;99.90;;;;;;6241900;22;20441;-72
2023/04/23 09:19:26;;;;;;;13.55;6.60;;;16.20;99.90;;;;;;6243519;22;20341;-71
2023/04/23 09:21:52;;;;;;;12.02;6.03;;;16.20;99.90;;;;;;6243247;22;20030;-72
2023/04/23 09:24:21;;;;;;;8.80;6.07;;;16.20;99.90;;;;;;6243150;22;20011;-71
2023/04/23 09:26:49;;;;;;;10.75;5.60;;;16.30;99.90;;;;;;6243278;22;20004;-72
2023/04/23 09:29:22;;;;;;;10.70;4.72;;;16.40;99.90;;;;;;6240951;23;20476;-72
2023/04/23 09:31:50;;;;;;;10.15;5.03;;;16.50;99.90;;;;;;6243650;22;19996;-72
2023/04/23 09:34:19;;;;;;;11.45;5.13;;;16.60;99.90;;;;;;6243385;22;20019;-72
2023/04/23 09:36:49;;;;;;;12.93;5.60;;;16.60;99.90;;;;;;6243168;22;19996;-72
2023/04/23 09:39:16;;;;;;;11.38;4.55;;;16.60;99.90;;;;;;6242731;22;20426;-73
2023/04/23 09:41:41;;;;;;;9.55;4.38;;;16.70;99.90;;;;;;6241171;23;20027;-72
2023/04/23 09:44:12;;;;;;;8.60;4.13;;;16.70;99.90;;;;;;6242694;22;20418;-72
2023/04/23 09:46:40;;;;;;;11.10;4.10;;;16.80;99.90;;;;;;6242801;22;20326;-72
2023/04/23 09:49:07;;;;;;;9.77;4.00;;;16.90;99.90;;;;;;6242933;22;20000;-72
2023/04/23 09:51:44;;;;;;;9.43;3.50;;;17.00;99.90;;;;;;6242619;22;20003;-73
2023/04/23 09:54:22;;;;;;;9.90;3.95;;;17.10;99.90;;;;;;6240930;23;20012;-72
2023/04/23 09:57:00;;;;;;;9.48;3.35;;;17.20;99.90;;;;;;6240212;23;20418;-72
2023/04/23 09:59:30;;;;;;;6.95;3.15;;;17.20;99.90;;;;;;6239081;23;20394;-72
2023/04/23 10:02:01;;;;;;;4.97;2.10;;;17.30;99.90;;;;;;6242138;22;19996;-71
2023/04/23 10:04:27;;;;;;;7.93;2.50;;;17.30;99.90;;;;;;6241146;22;20006;-72
2023/04/23 10:07:01;;;;;;;5.57;1.90;;;17.40;99.90;;;;;;6242378;22;20020;-73
2023/04/23 10:09:28;;;;;;;6.05;2.03;;;17.40;99.90;;;;;;6242731;22;20031;-73
2023/04/23 10:11:56;;;;;;;9.25;2.55;;;17.40;99.90;;;;;;6241976;22;20001;-72
2023/04/23 10:14:23;;;;;;;6.57;1.85;;;17.40;99.90;;;;;;6242378;22;20027;-72
2023/04/23 10:17:07;;;;;;;4.57;2.42;;;17.60;99.90;;;;;;6242883;22;20130;-72
2023/04/23 10:19:33;;;;;;;;;;;17.80;99.90;;;;;;6243377;22;20004;-72
2023/04/23 10:22:04;;;;;;;6.63;1.42;;;17.80;99.90;;;;;;6245001;22;19900;-72
2023/04/23 10:24:32;;;;;;;7.82;2.03;;;17.90;99.90;;;;;;6247846;22;20027;-72
2023/04/23 10:27:03;;;;;;;4.35;1.33;;;17.90;99.90;;;;;;6242029;22;20008;-72
2023/04/23 10:29:31;;;;;;;9.82;2.55;;;18.00;99.90;;;;;;6242850;22;20419;-73
2023/04/23 10:32:05;;;;;;;6.07;1.38;;;18.10;99.90;;;;;;6242874;22;20005;-72
2023/04/23 10:34:31;;;;;;;;;;;18.20;99.90;;;;;;6243437;22;20005;-71
2023/04/23 10:36:59;;;;;;;10.18;1.65;;;18.20;99.90;;;;;;6242494;22;19900;-72
2023/04/23 10:39:30;;;;;;;4.55;1.10;;;18.20;99.90;;;;;;6242460;22;20011;-72
2023/04/23 10:41:57;;;;;;;9.52;1.70;;;18.30;99.90;;;;;;6242299;22;20000;-72
2023/04/23 10:44:37;;;;;;;4.97;1.25;;;18.40;99.90;;;;;;6242262;22;20024;-74
2023/04/23 10:47:04;;;;;;;5.55;1.13;;;18.60;99.90;;;;;;6242801;22;20011;-72
2023/04/23 10:49:32;;;;;;;4.82;1.10;;;18.80;99.30;;;;;;6242380;22;20005;-72
2023/04/23 10:51:58;;;;;;;9.40;2.45;;;18.80;98.60;;;;;;6242521;22;20000;-72
2023/04/23 10:54:29;;;;;;;5.10;1.20;;;18.90;97.70;;;;;;6242381;22;20430;-72
2023/04/23 10:57:05;;;;;;;6.28;1.35;;;18.90;97.70;;;;;;6241841;22;20001;-72
2023/04/23 10:59:37;;;;;;;4.88;1.25;;;19.00;97.00;;;;;;6242315;22;20105;-72
2023/04/23 11:02:08;;;;;;;10.30;1.60;;;19.00;96.70;;;;;;6242346;22;20015;-72
2023/04/23 11:04:36;;;;;;;2.75;1.00;;;19.20;96.10;;;;;;6242240;22;20337;-72
2023/04/23 11:07:06;;;;;;;4.35;1.15;;;19.20;96.40;;;;;;6242187;22;20402;-72
2023/04/23 11:09:47;;;;;;;3.97;1.20;;;19.40;96.40;;;;;;6240014;23;20000;-73
2023/04/23 11:12:28;;;;;;;5.05;1.20;;;19.60;96.30;;;;;;6240507;23;20004;-72
2023/04/23 11:14:55;;;;;;;6.70;1.45;;;19.80;95.30;;;;;;6242105;22;20079;-72
2023/04/23 11:17:43;;;;;;;5.38;1.42;;;19.80;94.40;;;;;;6242064;22;20036;-72
2023/04/23 11:20:12;;;;;;;4.80;1.55;;;19.80;94.50;;;;;;6242018;23;20010;-72
2023/04/23 11:22:42;;;;;;;4.10;1.73;;;19.80;94.30;;;;;;6242220;22;20007;-72
2023/04/23 11:25:25;;;;;;;8.85;1.65;;;19.80;94.00;;;;;;6241471;22;20008;-72
2023/04/23 11:27:53;;;;;;;5.00;1.15;;;19.70;93.80;;;;;;6240677;22;20008;-72
2023/04/23 11:30:21;;;;;;;6.22;1.33;;;19.80;93.80;;;;;;6241754;22;20007;-72
2023/04/23 11:32:49;;;;;;;4.88;1.00;;;19.80;94.00;;;;;;6240466;23;20426;-72
2023/04/23 11:35:16;;;;;;;3.90;1.55;;;19.80;93.80;;;;;;6241579;22;20000;-73
2023/04/23 11:37:44;;;;;;;4.43;0.88;;;19.90;93.30;;;;;;6241768;22;20008;-72
2023/04/23 11:40:12;;;;;;;6.10;1.15;;;19.90;92.50;;;;;;6239695;22;20440;-73
2023/04/23 11:42:57;;;;;;;4.97;0.90;;;19.80;92.30;;;;;;6241378;22;20019;-73
2023/04/23 11:45:25;;;;;;;5.45;1.50;;;19.90;91.80;;;;;;6241307;22;20457;-74
2023/04/23 11:47:55;;;;;;;6.40;1.63;;;20.00;91.90;;;;;;6241432;22;20083;-74
2023/04/23 11:50:26;;;;;;;6.70;1.50;;;20.10;91.70;;;;;;6239327;23;20004;-73
2023/04/23 11:52:52;;;;;;;6.25;1.38;;;20.10;91.30;;;;;;6240833;22;20000;-73
2023/04/23 11:55:18;;;;;;;3.25;1.35;;;20.20;91.20;;;;;;6240993;22;20008;-74
2023/04/23 11:57:46;;;;;;;6.97;1.15;;;20.30;91.30;;;;;;6242023;22;20004;-73
2023/04/23 12:00:16;;;;;;;4.65;1.10;;;20.40;91.00;;;;;;6241262;22;20426;-73
2023/04/23 12:02:58;;;;;;;6.93;1.42;;;20.40;90.70;;;;;;6241242;23;20007;-73
2023/04/23 12:05:33;;;;;;;6.35;0.80;;;20.50;90.80;;;;;;6241189;22;20000;-74
2023/04/23 12:08:10;;;;;;;4.97;1.10;;;20.50;90.70;;;;;;6239097;23;20008;-73
2023/04/23 12:10:53;;;;;;;5.13;1.50;;;20.50;91.20;;;;;;6241933;22;19996;-73
2023/04/23 12:13:24;;;;;;;4.03;1.10;;;20.50;90.60;;;;;;6239730;23;20342;-73
2023/04/23 12:15:58;;;;;;;3.63;1.35;;;20.40;90.10;;;;;;6241600;22;20427;-73
2023/04/23 12:18:38;;;;;;;2.25;0.75;;;20.40;90.40;;;;;;6241447;22;20004;-73
2023/04/23 12:21:05;;;;;;;5.93;0.80;;;20.40;90.50;;;;;;6241139;22;20434;-74
2023/04/23 12:23:34;;;;;;;4.00;1.02;;;20.40;90.50;;;;;;6240683;22;20004;-73
2023/04/23 12:26:00;;;;;;;3.55;0.80;;;20.40;90.10;;;;;;6239932;23;20012;-74
2023/04/23 12:28:26;;;;;;;4.47;1.40;;;20.30;90.20;;;;;;6241188;22;20008;-73
2023/04/23 12:30:52;;;;;;;6.97;1.77;;;20.30;90.20;;;;;;6239855;23;20010;-73
2023/04/23 12:33:19;;;;;;;5.65;1.23;;;20.40;90.20;;;;;;6240795;23;20059;-73
2023/04/23 12:35:50;;;;;;;4.18;1.20;;;20.40;90.40;;;;;;6241129;22;20435;-74